Time;durP1;ratioP1;P1;durP2;ratioP2;P2;SDS_P1;SDS_P2;PMS_P1;PMS_P2;Temp;Humidity;BMP_temperature;BMP_pressure;BME280_temperature;BME280_humidity;BME280_pressure;Samples;Min_cycle;Max_cycle;Signal;HPM_P1;HPM_P2
2024/02/23 00:01:54;;;;;;;1.42;0.45;;;9.30;99.90;;;;;;5086578;28;20450;-61
2024/02/23 00:04:22;;;;;;;3.03;0.53;;;9.30;99.90;;;;;;5086883;28;20205;-62
2024/02/23 00:06:49;;;;;;;0.90;0.33;;;9.20;99.90;;;;;;5083797;28;20439;-62
2024/02/23 00:09:16;;;;;;;0.70;0.57;;;9.20;99.90;;;;;;5075207;28;20463;-61
2024/02/23 00:11:44;;;;;;;0.30;0.30;;;9.20;99.90;;;;;;5079317;28;20450;-62
2024/02/23 00:14:11;;;;;;;0.50;0.50;;;9.10;99.90;;;;;;5070872;28;20444;-62
2024/02/23 00:16:40;;;;;;;0.70;0.60;;;9.10;99.90;;;;;;5086174;28;20451;-61
2024/02/23 00:19:09;;;;;;;0.80;0.80;;;9.10;99.90;;;;;;5094658;22;20501;-64
2024/02/23 00:21:38;;;;;;;0.52;0.52;;;9.10;99.90;;;;;;5070496;28;20455;-64
2024/02/23 00:24:05;;;;;;;0.82;0.40;;;9.00;99.90;;;;;;5068291;28;20210;-64
2024/02/23 00:26:32;;;;;;;1.00;0.47;;;9.00;99.90;;;;;;5068426;28;20221;-64
2024/02/23 00:28:59;;;;;;;0.53;0.50;;;8.90;99.90;;;;;;5058241;28;20465;-64
2024/02/23 00:31:26;;;;;;;1.65;0.88;;;8.90;99.90;;;;;;5057363;28;20444;-64
2024/02/23 00:33:53;;;;;;;0.73;0.43;;;8.80;99.90;;;;;;5053244;28;20225;-64
2024/02/23 00:36:20;;;;;;;0.50;0.50;;;8.80;99.90;;;;;;5064769;28;20210;-64
2024/02/23 00:38:48;;;;;;;0.50;0.50;;;8.70;99.90;;;;;;5070048;28;20470;-66
2024/02/23 00:41:15;;;;;;;0.53;0.47;;;8.70;99.90;;;;;;5057352;28;20470;-64
2024/02/23 00:43:42;;;;;;;1.15;0.57;;;8.70;99.90;;;;;;5050767;28;20535;-64
2024/02/23 00:46:09;;;;;;;1.50;0.68;;;8.70;99.90;;;;;;5064115;28;20260;-64
2024/02/23 00:48:36;;;;;;;0.52;0.52;;;8.60;99.90;;;;;;5070702;28;20648;-64
2024/02/23 00:51:04;;;;;;;1.33;0.60;;;8.60;99.90;;;;;;5070387;28;20300;-64
2024/02/23 00:53:32;;;;;;;0.50;0.50;;;8.60;99.90;;;;;;5070084;28;20336;-64
2024/02/23 00:56:00;;;;;;;1.55;0.52;;;8.60;99.90;;;;;;5070452;28;20217;-64
2024/02/23 00:58:27;;;;;;;1.70;1.42;;;8.60;99.90;;;;;;5070683;28;20206;-63
2024/02/23 01:00:54;;;;;;;0.50;0.50;;;8.50;99.90;;;;;;5070441;28;20296;-64
2024/02/23 01:03:21;;;;;;;0.50;0.40;;;8.50;99.90;;;;;;5070127;28;20214;-64
2024/02/23 01:05:48;;;;;;;0.40;0.40;;;8.40;99.90;;;;;;5070759;28;20296;-64
2024/02/23 01:08:14;;;;;;;0.60;0.30;;;8.40;99.90;;;;;;5070319;28;20743;-64
2024/02/23 01:10:41;;;;;;;1.57;0.50;;;8.40;99.90;;;;;;5061382;28;20762;-64
2024/02/23 01:13:09;;;;;;;0.88;0.80;;;8.40;99.90;;;;;;5069423;28;20491;-64
2024/02/23 01:15:36;;;;;;;1.02;0.70;;;8.40;99.90;;;;;;5069178;28;20220;-64
2024/02/23 01:18:05;;;;;;;0.50;0.40;;;8.40;99.90;;;;;;5070173;28;20592;-64
2024/02/23 01:20:32;;;;;;;2.15;0.60;;;8.40;99.90;;;;;;5069737;28;20699;-64
2024/02/23 01:22:59;;;;;;;0.50;0.50;;;8.30;99.90;;;;;;5069410;28;20205;-63
2024/02/23 01:25:26;;;;;;;1.10;0.50;;;8.30;99.90;;;;;;5070060;28;20210;-64
2024/02/23 01:27:53;;;;;;;0.65;0.65;;;8.30;99.90;;;;;;5065743;28;20292;-64
2024/02/23 01:30:21;;;;;;;1.50;0.90;;;8.20;99.90;;;;;;5061150;28;20224;-64
2024/02/23 01:32:50;;;;;;;1.55;0.55;;;8.20;99.90;;;;;;5066018;28;20230;-64
2024/02/23 01:35:17;;;;;;;0.68;0.68;;;8.20;99.90;;;;;;5065554;28;20745;-64
2024/02/23 01:37:44;;;;;;;2.85;1.00;;;8.20;99.90;;;;;;5069871;28;20707;-63
2024/02/23 01:40:12;;;;;;;0.55;0.55;;;8.20;99.90;;;;;;5069682;28;20234;-64
2024/02/23 01:42:39;;;;;;;2.00;0.80;;;8.20;99.90;;;;;;5069353;28;20212;-64
2024/02/23 01:45:07;;;;;;;0.30;0.30;;;8.10;99.90;;;;;;5069686;28;20235;-64
2024/02/23 01:47:35;;;;;;;0.73;0.60;;;8.20;99.90;;;;;;5069492;28;20217;-64
2024/02/23 01:50:03;;;;;;;0.40;0.40;;;8.20;99.90;;;;;;5069302;28;20234;-64
2024/02/23 01:52:30;;;;;;;0.93;0.40;;;8.10;99.90;;;;;;5068881;28;20226;-63
2024/02/23 01:54:57;;;;;;;0.55;0.55;;;8.10;99.90;;;;;;5069617;28;20216;-63
2024/02/23 01:57:25;;;;;;;0.77;0.70;;;8.00;99.90;;;;;;5068969;28;20702;-64
2024/02/23 01:59:52;;;;;;;2.22;0.80;;;8.00;99.90;;;;;;5064896;28;20222;-64
2024/02/23 02:02:19;;;;;;;2.20;0.82;;;8.00;99.90;;;;;;5064387;28;20201;-64
2024/02/23 02:04:48;;;;;;;1.55;0.85;;;7.90;99.90;;;;;;5069015;28;20206;-63
2024/02/23 02:07:15;;;;;;;0.63;0.60;;;7.90;99.90;;;;;;5069329;28;20210;-63
2024/02/23 02:09:41;;;;;;;1.45;1.35;;;7.90;99.90;;;;;;5068881;28;20316;-63
2024/02/23 02:12:09;;;;;;;0.93;0.85;;;7.80;99.90;;;;;;5068890;28;20214;-63
2024/02/23 02:14:35;;;;;;;0.98;0.77;;;7.80;99.90;;;;;;5069054;28;20225;-63
2024/02/23 02:17:02;;;;;;;1.30;0.60;;;7.80;99.90;;;;;;5068998;28;20304;-64
2024/02/23 02:19:29;;;;;;;2.35;0.63;;;7.80;99.90;;;;;;5068394;28;20237;-63
2024/02/23 02:21:57;;;;;;;2.95;0.70;;;7.70;99.90;;;;;;5068563;28;20615;-63
2024/02/23 02:24:24;;;;;;;1.50;1.15;;;7.70;99.90;;;;;;5068973;28;20228;-63
2024/02/23 02:26:51;;;;;;;1.23;0.60;;;7.70;99.90;;;;;;5068946;28;20328;-63
2024/02/23 02:29:18;;;;;;;2.30;2.20;;;7.60;99.90;;;;;;5068624;28;20798;-63
2024/02/23 02:31:45;;;;;;;1.35;0.75;;;7.70;99.90;;;;;;5068570;28;20212;-63
2024/02/23 02:34:12;;;;;;;1.30;1.00;;;7.60;99.90;;;;;;5068682;28;20716;-63
2024/02/23 02:36:38;;;;;;;0.40;0.40;;;7.60;99.90;;;;;;5068989;28;20213;-63
2024/02/23 02:39:08;;;;;;;1.03;0.70;;;7.60;99.90;;;;;;5068692;28;20236;-63
2024/02/23 02:41:35;;;;;;;0.70;0.70;;;7.60;99.90;;;;;;5068691;28;20962;-63
2024/02/23 02:44:01;;;;;;;2.72;1.02;;;7.50;99.90;;;;;;5066841;28;20202;-64
2024/02/23 02:46:28;;;;;;;0.80;0.55;;;7.50;99.90;;;;;;5068637;28;20205;-64
2024/02/23 02:48:55;;;;;;;0.63;0.40;;;7.50;99.90;;;;;;5068646;28;20229;-64
2024/02/23 02:51:22;;;;;;;1.92;0.80;;;7.50;99.90;;;;;;5068854;28;20236;-64
2024/02/23 02:53:48;;;;;;;0.70;0.70;;;7.50;99.90;;;;;;5067975;28;20234;-63
2024/02/23 02:56:17;;;;;;;5.43;0.70;;;7.50;99.90;;;;;;5068610;28;20220;-63
2024/02/23 02:58:43;;;;;;;1.02;0.95;;;7.60;99.90;;;;;;5068307;28;20229;-63
2024/02/23 03:01:10;;;;;;;0.93;0.60;;;7.60;99.90;;;;;;5068395;28;20220;-63
2024/02/23 03:03:37;;;;;;;0.82;0.70;;;7.60;99.90;;;;;;5068101;28;20206;-64
2024/02/23 03:06:05;;;;;;;1.58;0.95;;;7.60;99.90;;;;;;5068450;28;20239;-63
2024/02/23 03:08:32;;;;;;;1.02;1.02;;;7.60;99.90;;;;;;5069147;28;20224;-63
2024/02/23 03:10:59;;;;;;;0.50;0.50;;;7.60;99.90;;;;;;5072585;28;20923;-63
2024/02/23 03:13:27;;;;;;;1.13;0.52;;;7.50;99.90;;;;;;5071794;28;20231;-64
2024/02/23 03:15:54;;;;;;;0.60;0.60;;;7.50;99.90;;;;;;5072738;28;20210;-64
2024/02/23 03:18:21;;;;;;;1.45;0.77;;;7.40;99.90;;;;;;5072941;28;21018;-63
2024/02/23 03:20:47;;;;;;;2.35;0.40;;;7.40;99.90;;;;;;5072267;28;20221;-63
2024/02/23 03:23:14;;;;;;;2.22;0.60;;;7.30;99.90;;;;;;5071833;28;20301;-64
2024/02/23 03:25:41;;;;;;;1.40;0.70;;;7.20;99.90;;;;;;5072190;28;20213;-63
2024/02/23 03:28:08;;;;;;;1.10;0.68;;;7.20;99.90;;;;;;5072125;28;20220;-64
2024/02/23 03:30:36;;;;;;;0.60;0.50;;;7.10;99.90;;;;;;5071818;28;20229;-63
2024/02/23 03:33:03;;;;;;;1.73;0.43;;;7.00;99.90;;;;;;5071451;28;20235;-63
2024/02/23 03:35:30;;;;;;;0.30;0.30;;;7.00;99.90;;;;;;5072218;28;20209;-64
2024/02/23 03:37:56;;;;;;;1.75;0.65;;;7.00;99.90;;;;;;5072140;28;20209;-63
2024/02/23 03:40:23;;;;;;;1.45;0.50;;;6.90;99.90;;;;;;5071727;28;20257;-63
2024/02/23 03:42:50;;;;;;;0.40;0.38;;;6.90;99.90;;;;;;5071304;28;20212;-63
2024/02/23 03:45:17;;;;;;;1.40;0.50;;;6.80;99.90;;;;;;5072118;28;20214;-63
2024/02/23 03:47:45;;;;;;;0.75;0.30;;;6.80;99.90;;;;;;5071844;28;20215;-63
2024/02/23 03:50:12;;;;;;;0.50;0.43;;;6.80;99.90;;;;;;5071863;28;20233;-63
2024/02/23 03:52:39;;;;;;;0.75;0.65;;;6.70;99.90;;;;;;5071590;28;20217;-63
2024/02/23 03:55:06;;;;;;;1.38;0.60;;;6.70;99.90;;;;;;5071628;28;20609;-63
2024/02/23 03:57:33;;;;;;;1.13;1.00;;;6.70;99.90;;;;;;5071696;28;20312;-63
2024/02/23 04:00:00;;;;;;;2.70;0.47;;;6.60;99.90;;;;;;5071558;28;20730;-63
2024/02/23 04:02:27;;;;;;;3.30;0.90;;;6.60;99.90;;;;;;5071165;28;20209;-63
2024/02/23 04:04:55;;;;;;;0.85;0.60;;;6.50;99.90;;;;;;5071541;28;20210;-63
2024/02/23 04:07:22;;;;;;;2.50;0.75;;;6.50;99.90;;;;;;5071476;28;20218;-63
2024/02/23 04:09:52;;;;;;;1.45;0.90;;;6.50;99.90;;;;;;5071108;28;20232;-63
2024/02/23 04:12:19;;;;;;;0.57;0.40;;;6.50;99.90;;;;;;5071091;28;20210;-64
2024/02/23 04:14:45;;;;;;;0.60;0.50;;;6.50;99.90;;;;;;5071192;28;20240;-63
2024/02/23 04:17:13;;;;;;;1.38;0.90;;;6.40;99.90;;;;;;5071452;28;20220;-63
2024/02/23 04:19:42;;;;;;;2.33;0.68;;;6.40;99.90;;;;;;5070984;28;20233;-63
2024/02/23 04:22:10;;;;;;;1.35;0.82;;;6.40;99.90;;;;;;5070843;28;20680;-63
2024/02/23 04:24:39;;;;;;;1.35;1.00;;;6.40;99.90;;;;;;5071404;28;20305;-63
2024/02/23 04:27:06;;;;;;;0.60;0.60;;;6.40;99.90;;;;;;5068880;28;20220;-63
2024/02/23 04:29:33;;;;;;;1.48;0.93;;;6.40;99.90;;;;;;5070768;28;20240;-63
2024/02/23 04:32:01;;;;;;;0.82;0.75;;;6.30;99.90;;;;;;5070420;28;20679;-63
2024/02/23 04:34:28;;;;;;;3.53;0.70;;;6.30;99.90;;;;;;5071014;28;20236;-63
2024/02/23 04:36:55;;;;;;;0.50;0.50;;;6.30;99.90;;;;;;5070891;28;20328;-63
2024/02/23 04:39:23;;;;;;;3.67;1.02;;;6.30;99.90;;;;;;5070782;28;20251;-63
2024/02/23 04:41:50;;;;;;;2.17;0.60;;;6.30;99.90;;;;;;5070124;28;20212;-63
2024/02/23 04:44:17;;;;;;;1.23;1.23;;;6.30;99.90;;;;;;5071023;28;20312;-63
2024/02/23 04:46:43;;;;;;;0.55;0.55;;;6.40;99.90;;;;;;5070770;28;20336;-63
2024/02/23 04:49:12;;;;;;;2.55;1.08;;;6.40;99.90;;;;;;5070572;28;20225;-63
2024/02/23 04:51:39;;;;;;;0.60;0.60;;;6.40;99.90;;;;;;5070824;28;20213;-63
2024/02/23 04:54:07;;;;;;;1.45;1.00;;;6.40;99.90;;;;;;5070141;28;20233;-63
2024/02/23 04:56:35;;;;;;;1.15;0.60;;;6.50;99.90;;;;;;5071022;28;20213;-63
2024/02/23 04:59:03;;;;;;;1.60;1.00;;;6.50;99.90;;;;;;5070738;28;20321;-63
2024/02/23 05:01:30;;;;;;;0.82;0.60;;;6.50;99.90;;;;;;5070815;28;20234;-63
2024/02/23 05:03:56;;;;;;;0.57;0.57;;;6.50;99.90;;;;;;5070126;28;20205;-63
2024/02/23 05:06:23;;;;;;;1.67;0.40;;;6.50;99.90;;;;;;5070356;28;20213;-63
2024/02/23 05:08:50;;;;;;;1.38;0.77;;;6.50;99.90;;;;;;5069952;28;20230;-63
2024/02/23 05:11:17;;;;;;;2.00;0.75;;;6.50;99.90;;;;;;5070218;28;20274;-63
2024/02/23 05:13:45;;;;;;;0.80;0.60;;;6.40;99.90;;;;;;5069829;28;20320;-63
2024/02/23 05:16:13;;;;;;;2.90;0.65;;;6.40;99.90;;;;;;5070939;28;20216;-63
2024/02/23 05:18:40;;;;;;;3.72;1.15;;;6.50;99.90;;;;;;5070600;28;20210;-63
2024/02/23 05:21:07;;;;;;;0.65;0.60;;;6.50;99.90;;;;;;5070129;28;20212;-63
2024/02/23 05:23:34;;;;;;;1.25;0.70;;;6.50;99.90;;;;;;5069523;28;20214;-63
2024/02/23 05:26:00;;;;;;;0.60;0.47;;;6.50;99.90;;;;;;5070241;28;20680;-63
2024/02/23 05:28:28;;;;;;;0.90;0.63;;;6.50;99.90;;;;;;5070207;28;20213;-63
2024/02/23 05:30:56;;;;;;;3.22;1.42;;;6.50;99.90;;;;;;5069994;28;20691;-63
2024/02/23 05:33:25;;;;;;;1.85;0.70;;;6.50;99.90;;;;;;5069254;28;20209;-63
2024/02/23 05:35:52;;;;;;;0.80;0.68;;;6.50;99.90;;;;;;5069791;28;20313;-63
2024/02/23 05:38:19;;;;;;;0.50;0.50;;;6.40;99.90;;;;;;5069739;28;20384;-63
2024/02/23 05:40:46;;;;;;;2.17;0.75;;;6.40;99.90;;;;;;5069393;28;20245;-63
2024/02/23 05:43:12;;;;;;;1.50;0.70;;;6.40;99.90;;;;;;5069045;28;20221;-63
2024/02/23 05:45:39;;;;;;;1.00;0.60;;;6.40;99.90;;;;;;5069565;28;20225;-62
2024/02/23 05:48:08;;;;;;;2.47;0.95;;;6.40;99.90;;;;;;5069631;28;20679;-63
2024/02/23 05:50:35;;;;;;;0.93;0.60;;;6.40;99.90;;;;;;5069166;28;20234;-63
2024/02/23 05:53:03;;;;;;;0.68;0.68;;;6.30;99.90;;;;;;5069066;28;20648;-63
2024/02/23 05:55:29;;;;;;;1.30;0.90;;;6.30;99.90;;;;;;5069460;28;20240;-63
2024/02/23 05:57:57;;;;;;;0.70;0.70;;;6.20;99.90;;;;;;5067075;28;20208;-63
2024/02/23 06:00:24;;;;;;;1.30;1.30;;;6.20;99.90;;;;;;5049048;28;20811;-63
2024/02/23 06:02:51;;;;;;;2.90;0.95;;;6.10;99.90;;;;;;5048937;28;20636;-63
2024/02/23 06:05:19;;;;;;;3.15;0.90;;;6.10;99.90;;;;;;5061222;28;20208;-63
2024/02/23 06:07:46;;;;;;;0.70;0.70;;;6.10;99.90;;;;;;5065998;28;20201;-63
2024/02/23 06:10:13;;;;;;;0.80;0.80;;;6.00;99.90;;;;;;5068872;28;20237;-63
2024/02/23 06:12:40;;;;;;;2.78;1.30;;;6.00;99.90;;;;;;5068614;28;20217;-63
2024/02/23 06:15:08;;;;;;;1.17;0.65;;;6.00;99.90;;;;;;5051622;28;20277;-63
2024/02/23 06:17:34;;;;;;;1.67;0.73;;;5.90;99.90;;;;;;5048944;28;20632;-63
2024/02/23 06:20:01;;;;;;;2.95;0.75;;;5.90;99.90;;;;;;5101763;22;20234;-57
2024/02/23 06:22:30;;;;;;;3.85;0.70;;;5.80;99.90;;;;;;5100828;28;20587;-57
2024/02/23 06:24:56;;;;;;;2.90;0.90;;;5.80;99.90;;;;;;5097740;28;20209;-55
2024/02/23 06:27:25;;;;;;;1.95;0.93;;;5.70;99.90;;;;;;5104566;28;20209;-56
2024/02/23 06:29:52;;;;;;;4.88;0.88;;;5.60;99.90;;;;;;5103220;28;20235;-59
2024/02/23 06:32:18;;;;;;;0.50;0.50;;;5.60;99.90;;;;;;5092439;28;20637;-61
2024/02/23 06:34:46;;;;;;;1.88;1.67;;;5.60;99.90;;;;;;5091065;28;20227;-57
2024/02/23 06:37:13;;;;;;;2.10;0.80;;;5.50;99.90;;;;;;5094398;28;20745;-58
2024/02/23 06:39:42;;;;;;;2.28;0.80;;;5.40;99.90;;;;;;5097914;28;20674;-60
2024/02/23 06:42:08;;;;;;;4.20;0.93;;;5.40;99.90;;;;;;5095532;28;20205;-59
2024/02/23 06:44:35;;;;;;;4.00;0.85;;;5.30;99.90;;;;;;5095958;28;20200;-58
2024/02/23 06:47:02;;;;;;;1.90;0.70;;;5.30;99.90;;;;;;5098399;28;20202;-58
2024/02/23 06:49:30;;;;;;;4.13;0.70;;;5.20;99.90;;;;;;5088781;28;20375;-57
2024/02/23 06:51:56;;;;;;;0.93;0.88;;;5.20;99.90;;;;;;5088092;28;20217;-58
2024/02/23 06:54:23;;;;;;;0.98;0.90;;;5.10;99.90;;;;;;5088562;28;20228;-57
2024/02/23 06:56:51;;;;;;;3.10;0.95;;;5.10;99.90;;;;;;5088847;28;20213;-57
2024/02/23 06:59:18;;;;;;;0.50;0.50;;;5.10;99.90;;;;;;5088367;28;20239;-58
2024/02/23 07:01:51;;;;;;;2.78;0.60;;;5.10;99.90;;;;;;5088762;28;20213;-59
2024/02/23 07:04:18;;;;;;;1.05;0.73;;;5.10;99.90;;;;;;5088775;28;20287;-57
2024/02/23 07:06:45;;;;;;;3.38;0.77;;;5.00;99.90;;;;;;5088770;28;20572;-57
2024/02/23 07:09:12;;;;;;;0.70;0.70;;;5.00;99.90;;;;;;5088292;28;20744;-57
2024/02/23 07:11:39;;;;;;;1.15;1.05;;;5.00;99.90;;;;;;5088617;28;20628;-58
2024/02/23 07:14:09;;;;;;;1.58;0.65;;;5.00;99.90;;;;;;5087966;28;20209;-59
2024/02/23 07:16:39;;;;;;;1.85;0.60;;;5.00;99.90;;;;;;5087389;28;20205;-56
2024/02/23 07:19:06;;;;;;;1.95;0.93;;;5.00;99.90;;;;;;5088013;28;20201;-58
2024/02/23 07:21:33;;;;;;;2.17;1.13;;;5.00;99.90;;;;;;5088048;28;20288;-58
2024/02/23 07:24:00;;;;;;;1.10;0.60;;;5.00;99.90;;;;;;5087785;28;20216;-55
2024/02/23 07:26:29;;;;;;;3.13;0.80;;;5.10;99.90;;;;;;5088432;28;20209;-57
2024/02/23 07:28:56;;;;;;;2.60;0.93;;;5.10;99.90;;;;;;5088085;28;20229;-59
2024/02/23 07:31:24;;;;;;;0.70;0.70;;;5.10;99.90;;;;;;5087790;28;20208;-57
2024/02/23 07:33:51;;;;;;;1.50;0.90;;;5.20;99.90;;;;;;5087982;28;20223;-57
2024/02/23 07:36:19;;;;;;;1.50;0.75;;;5.20;99.90;;;;;;5088587;28;20586;-58
2024/02/23 07:38:46;;;;;;;3.85;1.15;;;5.30;99.90;;;;;;5088513;28;20594;-59
2024/02/23 07:41:13;;;;;;;12.88;3.25;;;5.40;99.90;;;;;;5088479;28;20213;-58
2024/02/23 07:43:40;;;;;;;11.70;4.68;;;5.50;99.90;;;;;;5087841;28;20215;-59
2024/02/23 07:46:08;;;;;;;8.82;4.70;;;5.60;99.90;;;;;;5088213;28;20209;-59
2024/02/23 07:48:37;;;;;;;4.65;2.03;;;5.70;99.90;;;;;;5088103;28;20209;-55
2024/02/23 07:51:05;;;;;;;3.55;1.85;;;5.80;99.90;;;;;;5087748;28;20235;-58
2024/02/23 07:53:32;;;;;;;98.03;29.98;;;5.90;99.90;;;;;;5087715;28;20311;-58
2024/02/23 07:56:02;;;;;;;499.35;119.05;;;5.90;99.90;;;;;;5090704;28;20224;-58
2024/02/23 07:58:29;;;;;;;500.33;137.63;;;6.00;99.90;;;;;;5091401;28;20247;-58
2024/02/23 08:00:56;;;;;;;78.22;21.67;;;6.10;99.90;;;;;;5091471;28;20225;-60
2024/02/23 08:03:23;;;;;;;6.93;4.28;;;6.10;99.90;;;;;;5091147;28;20217;-58
2024/02/23 08:05:51;;;;;;;1.50;1.05;;;6.20;99.90;;;;;;5091928;28;20215;-58
2024/02/23 08:08:18;;;;;;;2.80;1.10;;;6.30;99.90;;;;;;5091802;28;20209;-60
2024/02/23 08:10:45;;;;;;;1.58;0.85;;;6.30;99.90;;;;;;5091644;28;20239;-58
2024/02/23 08:13:12;;;;;;;3.30;2.30;;;6.30;99.90;;;;;;5087974;28;20695;-57
2024/02/23 08:15:38;;;;;;;6.70;1.10;;;6.40;99.90;;;;;;5091066;28;20253;-58
2024/02/23 08:18:06;;;;;;;3.47;1.00;;;6.40;99.90;;;;;;5091564;28;20671;-58
2024/02/23 08:20:33;;;;;;;4.18;1.02;;;6.50;99.90;;;;;;5090349;28;20232;-55
2024/02/23 08:23:01;;;;;;;3.08;0.85;;;6.50;99.90;;;;;;5090685;28;20217;-58
2024/02/23 08:25:29;;;;;;;46.28;11.20;;;6.50;99.90;;;;;;5084659;28;20654;-58
2024/02/23 08:27:56;;;;;;;206.40;56.58;;;6.50;99.90;;;;;;5090838;28;20642;-58
2024/02/23 08:30:22;;;;;;;44.63;15.68;;;6.60;99.90;;;;;;5090683;28;20737;-59
2024/02/23 08:32:49;;;;;;;37.95;12.10;;;6.60;99.90;;;;;;5090689;28;20320;-60
2024/02/23 08:35:16;;;;;;;179.98;46.00;;;6.70;99.90;;;;;;5077452;28;20635;-58
2024/02/23 08:37:43;;;;;;;169.88;47.72;;;6.80;99.90;;;;;;5090740;28;20697;-59
2024/02/23 08:40:12;;;;;;;160.63;47.40;;;6.80;99.90;;;;;;5077479;28;20729;-58
2024/02/23 08:42:39;;;;;;;15.05;5.63;;;6.90;99.90;;;;;;5090101;28;20727;-54
2024/02/23 08:45:07;;;;;;;3.58;1.40;;;6.90;99.90;;;;;;5090741;28;20318;-58
2024/02/23 08:47:35;;;;;;;2.05;0.80;;;7.00;99.90;;;;;;5090894;28;20216;-58
2024/02/23 08:50:02;;;;;;;246.45;62.70;;;7.00;99.90;;;;;;5090224;28;20648;-57
2024/02/23 08:52:29;;;;;;;18.58;5.90;;;7.10;99.90;;;;;;5089865;28;20205;-59
2024/02/23 08:54:56;;;;;;;27.10;9.00;;;7.10;99.90;;;;;;5089260;28;20706;-59
2024/02/23 08:57:24;;;;;;;105.82;28.83;;;7.10;99.90;;;;;;5090339;28;20201;-60
2024/02/23 08:59:51;;;;;;;125.78;34.47;;;7.10;99.90;;;;;;5089545;28;20241;-59
2024/02/23 09:02:18;;;;;;;7.25;3.42;;;7.10;99.90;;;;;;5089912;28;20213;-57
2024/02/23 09:04:45;;;;;;;20.35;6.38;;;7.20;99.90;;;;;;5090422;28;20205;-59
2024/02/23 09:07:12;;;;;;;133.73;39.63;;;7.20;99.90;;;;;;5089651;28;20263;-56
2024/02/23 09:09:39;;;;;;;8.00;1.60;;;7.20;99.90;;;;;;5090074;28;20229;-57
2024/02/23 09:12:10;;;;;;;2.63;1.88;;;7.20;99.90;;;;;;5089904;28;20209;-57
2024/02/23 09:14:38;;;;;;;1.63;1.60;;;7.30;99.90;;;;;;5084358;28;20220;-59
2024/02/23 09:17:05;;;;;;;1.23;1.10;;;7.20;99.90;;;;;;5080858;28;20296;-59
2024/02/23 09:19:32;;;;;;;5.65;2.60;;;7.20;99.90;;;;;;5074285;28;20264;-59
2024/02/23 09:22:00;;;;;;;2.72;1.10;;;7.20;99.90;;;;;;5087295;28;20209;-57
2024/02/23 09:24:26;;;;;;;5.80;2.83;;;7.30;99.90;;;;;;5077915;28;20248;-59
2024/02/23 09:26:53;;;;;;;1.30;1.05;;;7.30;99.90;;;;;;5087912;28;20667;-59
2024/02/23 09:29:21;;;;;;;0.90;0.90;;;7.30;99.90;;;;;;5081593;28;20587;-56
2024/02/23 09:31:49;;;;;;;7.47;1.42;;;7.30;99.90;;;;;;5087286;28;20635;-58
2024/02/23 09:34:16;;;;;;;1.52;1.15;;;7.30;99.90;;;;;;5083845;28;20247;-59
2024/02/23 09:36:43;;;;;;;4.70;1.20;;;7.30;99.90;;;;;;5081214;28;20800;-57
2024/02/23 09:39:09;;;;;;;137.25;43.40;;;7.40;99.90;;;;;;5090164;28;20229;-58
2024/02/23 09:41:40;;;;;;;62.22;19.75;;;7.40;99.90;;;;;;5096133;28;21025;-58
2024/02/23 09:44:09;;;;;;;10.45;4.40;;;7.40;99.90;;;;;;5097372;28;20211;-59
2024/02/23 09:46:37;;;;;;;4.93;1.25;;;7.40;99.90;;;;;;5098841;28;20251;-59
2024/02/23 09:49:07;;;;;;;29.08;7.43;;;7.50;99.90;;;;;;5099058;28;20647;-58
2024/02/23 09:51:35;;;;;;;20.10;6.05;;;7.50;99.90;;;;;;5094119;28;20686;-57
2024/02/23 09:54:03;;;;;;;8.55;2.60;;;7.50;99.90;;;;;;5096300;28;20208;-57
2024/02/23 09:56:30;;;;;;;9.88;1.90;;;7.60;99.90;;;;;;5095041;28;20703;-56
2024/02/23 09:59:00;;;;;;;3.30;1.20;;;7.60;99.90;;;;;;5082972;28;20686;-55
2024/02/23 10:01:30;;;;;;;2.78;2.08;;;7.60;99.90;;;;;;5087878;28;20774;-58
2024/02/23 10:03:58;;;;;;;4.63;1.88;;;7.60;99.90;;;;;;5087681;28;20208;-57
2024/02/23 10:06:27;;;;;;;1.65;1.30;;;7.60;99.90;;;;;;5088745;28;20926;-57
2024/02/23 10:08:54;;;;;;;16.05;6.78;;;7.60;99.90;;;;;;5082357;28;20213;-58
2024/02/23 10:11:21;;;;;;;1.83;1.00;;;7.50;99.90;;;;;;5084479;28;20283;-56
2024/02/23 10:13:50;;;;;;;10.30;3.13;;;7.50;99.90;;;;;;5085995;28;20236;-58
2024/02/23 10:16:17;;;;;;;56.75;18.02;;;7.50;99.90;;;;;;5084191;28;20239;-59
2024/02/23 10:18:44;;;;;;;2.15;1.50;;;7.70;99.90;;;;;;5079833;28;20300;-55
2024/02/23 10:21:11;;;;;;;3.45;2.20;;;7.80;99.90;;;;;;5082314;28;20233;-58
2024/02/23 10:23:40;;;;;;;5.85;1.20;;;8.00;99.90;;;;;;5083390;28;20262;-60
2024/02/23 10:26:07;;;;;;;7.45;1.63;;;8.10;99.90;;;;;;5081700;28;20215;-60
2024/02/23 10:28:35;;;;;;;4.30;0.90;;;8.20;99.90;;;;;;5082307;28;20266;-59
2024/02/23 10:31:02;;;;;;;3.88;1.10;;;8.40;99.90;;;;;;5078499;28;20712;-59
2024/02/23 10:33:30;;;;;;;3.47;1.20;;;8.50;99.90;;;;;;5082972;28;20213;-59
2024/02/23 10:35:58;;;;;;;2.70;1.63;;;8.40;99.90;;;;;;5088019;28;20235;-60
2024/02/23 10:38:27;;;;;;;0.95;0.90;;;8.40;99.90;;;;;;5087962;28;20627;-56
2024/02/23 10:40:57;;;;;;;3.65;1.15;;;8.40;99.90;;;;;;5087471;28;20235;-59
2024/02/23 10:43:30;;;;;;;4.00;1.30;;;8.40;99.90;;;;;;5087311;28;20235;-61
2024/02/23 10:46:02;;;;;;;2.58;1.00;;;8.30;99.90;;;;;;5088070;28;20207;-61
2024/02/23 10:48:30;;;;;;;1.83;1.27;;;8.30;99.90;;;;;;5087838;28;20274;-55
2024/02/23 10:50:58;;;;;;;4.55;1.13;;;8.40;99.90;;;;;;5087340;28;20753;-60
2024/02/23 10:53:26;;;;;;;4.07;1.25;;;8.50;99.90;;;;;;5082782;28;20567;-60
2024/02/23 10:55:58;;;;;;;3.35;1.48;;;8.50;99.90;;;;;;5084812;28;20236;-61
2024/02/23 10:58:24;;;;;;;7.03;3.58;;;8.50;99.90;;;;;;5087030;28;20201;-59
2024/02/23 11:00:51;;;;;;;3.55;1.27;;;8.50;99.90;;;;;;5086786;28;20231;-59
2024/02/23 11:03:20;;;;;;;1.48;1.25;;;8.50;99.90;;;;;;5087197;28;20209;-59
2024/02/23 11:05:49;;;;;;;2.95;1.30;;;8.50;99.90;;;;;;5081472;28;20302;-58
2024/02/23 11:08:19;;;;;;;1.13;0.80;;;8.40;99.90;;;;;;5086334;28;20216;-59
2024/02/23 11:10:51;;;;;;;2.53;1.05;;;8.40;99.90;;;;;;5083916;28;20988;-59
2024/02/23 11:13:30;;;;;;;106.43;32.45;;;8.50;99.90;;;;;;5080364;28;20204;-59
2024/02/23 11:16:03;;;;;;;42.70;11.95;;;8.50;99.90;;;;;;5083007;28;20227;-61
2024/02/23 11:18:32;;;;;;;42.08;11.02;;;8.50;99.90;;;;;;5081518;28;20259;-59
2024/02/23 11:21:01;;;;;;;12.93;5.50;;;8.50;99.90;;;;;;5081313;28;20290;-59
2024/02/23 11:23:28;;;;;;;3.83;1.20;;;8.60;99.90;;;;;;5086261;28;20606;-60
2024/02/23 11:26:08;;;;;;;7.70;5.45;;;8.60;99.90;;;;;;5087149;28;20215;-60
2024/02/23 11:28:43;;;;;;;65.60;20.83;;;8.60;99.90;;;;;;5084708;28;20258;-58
2024/02/23 11:31:14;;;;;;;1.95;1.23;;;8.70;99.90;;;;;;5083390;28;20545;-59
2024/02/23 11:33:41;;;;;;;38.85;8.70;;;8.60;99.90;;;;;;5090183;28;20205;-59
2024/02/23 11:36:09;;;;;;;5.15;2.95;;;8.60;99.90;;;;;;5090804;28;20603;-60
2024/02/23 11:38:36;;;;;;;3.55;1.20;;;8.60;99.90;;;;;;5091204;28;20581;-61
2024/02/23 11:41:04;;;;;;;2.00;1.20;;;8.50;99.90;;;;;;5090017;28;20229;-59
2024/02/23 11:43:31;;;;;;;6.50;1.25;;;8.50;99.90;;;;;;5088920;28;20209;-61
2024/02/23 11:45:59;;;;;;;2.28;1.00;;;8.50;99.90;;;;;;5089003;28;20631;-60
2024/02/23 11:48:25;;;;;;;0.63;0.63;;;8.50;99.90;;;;;;5082917;28;20208;-59
2024/02/23 11:50:52;;;;;;;23.65;8.50;;;8.50;99.90;;;;;;5088595;28;20233;-58
2024/02/23 11:53:21;;;;;;;7.28;2.40;;;8.50;99.90;;;;;;5089226;28;20204;-56
2024/02/23 11:55:49;;;;;;;1.98;1.30;;;8.50;99.90;;;;;;5090213;28;20221;-58
2024/02/23 11:58:16;;;;;;;41.90;12.48;;;8.50;99.90;;;;;;5090425;28;20209;-60
2024/02/23 12:00:43;;;;;;;132.77;37.80;;;8.50;99.90;;;;;;5090458;28;20233;-59
2024/02/23 12:03:11;;;;;;;9.85;3.58;;;8.50;99.90;;;;;;5090231;28;20205;-59
2024/02/23 12:05:38;;;;;;;5.45;1.42;;;8.60;99.90;;;;;;5090662;28;20296;-59
2024/02/23 12:08:05;;;;;;;5.53;1.00;;;8.60;99.90;;;;;;5089914;28;20205;-59
2024/02/23 12:10:32;;;;;;;1.27;1.10;;;8.60;99.90;;;;;;5089850;28;20232;-59
2024/02/23 12:12:59;;;;;;;1.47;1.33;;;8.70;99.90;;;;;;5089962;28;20288;-58
2024/02/23 12:15:28;;;;;;;1.65;0.95;;;8.70;99.90;;;;;;5088350;28;20462;-60
2024/02/23 12:17:58;;;;;;;1.15;0.90;;;8.70;99.90;;;;;;5088885;28;20212;-59
2024/02/23 12:20:26;;;;;;;2.22;1.40;;;8.70;99.90;;;;;;5091580;22;20234;-62
2024/02/23 12:22:56;;;;;;;7.60;1.23;;;8.60;99.90;;;;;;5055740;28;20217;-65
2024/02/23 12:25:23;;;;;;;0.90;0.90;;;8.60;99.90;;;;;;5050433;28;20217;-63
2024/02/23 12:27:55;;;;;;;1.53;1.10;;;8.60;99.90;;;;;;5048546;28;20455;-62
2024/02/23 12:30:22;;;;;;;1.53;0.80;;;8.60;99.90;;;;;;5049652;28;20470;-63
2024/02/23 12:32:49;;;;;;;1.33;0.70;;;8.60;99.90;;;;;;5037814;28;20462;-62
2024/02/23 12:35:17;;;;;;;2.22;1.30;;;8.60;99.90;;;;;;5033687;28;20446;-63
2024/02/23 12:37:45;;;;;;;2.20;1.27;;;8.70;99.90;;;;;;5037966;28;20226;-63
2024/02/23 12:40:13;;;;;;;15.95;6.28;;;8.80;99.90;;;;;;5037326;28;20477;-63
2024/02/23 12:42:40;;;;;;;11.90;4.30;;;8.90;99.90;;;;;;5030439;28;20206;-63
2024/02/23 12:45:07;;;;;;;25.90;7.07;;;9.00;99.90;;;;;;5034734;28;20217;-62
2024/02/23 12:47:34;;;;;;;6.70;4.37;;;9.10;99.90;;;;;;5033943;28;20540;-63
2024/02/23 12:50:00;;;;;;;43.10;11.07;;;9.10;99.90;;;;;;5037256;28;20571;-62
2024/02/23 12:52:27;;;;;;;2.87;1.60;;;9.10;99.90;;;;;;5035494;28;21022;-63
2024/02/23 12:54:56;;;;;;;2.03;1.10;;;9.20;99.90;;;;;;5032728;28;20449;-63
2024/02/23 12:57:22;;;;;;;1.13;1.03;;;9.30;99.90;;;;;;5040636;28;20583;-63